sensor_id;sensor_type;location;lat;lon;timestamp;P1;durP1;ratioP1;P2;durP2;ratioP2
17965;SDS011;9108;53.204;10.424;2024-03-22T05:01:24;62.42;;;30.15;;
17965;SDS011;9108;53.204;10.424;2024-03-22T05:03:51;64.77;;;30.00;;
17965;SDS011;9108;53.204;10.424;2024-03-22T05:06:47;64.50;;;31.33;;
17965;SDS011;9108;53.204;10.424;2024-03-22T05:12:01;68.07;;;31.38;;
17965;SDS011;9108;53.204;10.424;2024-03-22T05:17:37;71.07;;;32.28;;
17965;SDS011;9108;53.204;10.424;2024-03-22T05:20:06;68.07;;;31.92;;
17965;SDS011;9108;53.204;10.424;2024-03-22T05:22:35;69.43;;;32.47;;
17965;SDS011;9108;53.204;10.424;2024-03-22T05:25:02;71.35;;;33.72;;
17965;SDS011;9108;53.204;10.424;2024-03-22T05:27:30;71.40;;;33.30;;
17965;SDS011;9108;53.204;10.424;2024-03-22T05:29:57;71.47;;;32.92;;
17965;SDS011;9108;53.204;10.424;2024-03-22T05:32:23;75.82;;;35.00;;
17965;SDS011;9108;53.204;10.424;2024-03-22T05:34:52;74.40;;;34.78;;
17965;SDS011;9108;53.204;10.424;2024-03-22T05:37:18;83.30;;;35.75;;
17965;SDS011;9108;53.204;10.424;2024-03-22T05:39:46;77.30;;;35.25;;
17965;SDS011;9108;53.204;10.424;2024-03-22T05:42:12;75.78;;;34.50;;
17965;SDS011;9108;53.204;10.424;2024-03-22T05:44:39;77.75;;;35.50;;
17965;SDS011;9108;53.204;10.424;2024-03-22T05:47:06;78.03;;;36.13;;
17965;SDS011;9108;53.204;10.424;2024-03-22T05:49:33;75.82;;;35.60;;
17965;SDS011;9108;53.204;10.424;2024-03-22T05:52:00;82.45;;;37.67;;
17965;SDS011;9108;53.204;10.424;2024-03-22T05:54:27;76.78;;;36.55;;
17965;SDS011;9108;53.204;10.424;2024-03-22T05:56:54;79.57;;;36.50;;
17965;SDS011;9108;53.204;10.424;2024-03-22T05:59:21;77.20;;;36.60;;
17965;SDS011;9108;53.204;10.424;2024-03-22T06:01:48;84.22;;;37.22;;
17965;SDS011;9108;53.204;10.424;2024-03-22T06:04:15;83.40;;;37.85;;
17965;SDS011;9108;53.204;10.424;2024-03-22T06:06:41;84.30;;;38.28;;
17965;SDS011;9108;53.204;10.424;2024-03-22T06:09:09;84.47;;;37.58;;
17965;SDS011;9108;53.204;10.424;2024-03-22T06:11:38;87.75;;;37.70;;
17965;SDS011;9108;53.204;10.424;2024-03-22T06:14:09;88.00;;;38.85;;
17965;SDS011;9108;53.204;10.424;2024-03-22T06:16:35;83.63;;;38.20;;
17965;SDS011;9108;53.204;10.424;2024-03-22T06:19:02;88.30;;;39.17;;
17965;SDS011;9108;53.204;10.424;2024-03-22T06:21:28;85.88;;;38.42;;
17965;SDS011;9108;53.204;10.424;2024-03-22T06:23:55;87.68;;;38.70;;
17965;SDS011;9108;53.204;10.424;2024-03-22T06:26:23;91.57;;;40.08;;
17965;SDS011;9108;53.204;10.424;2024-03-22T06:28:54;89.38;;;40.15;;
17965;SDS011;9108;53.204;10.424;2024-03-22T06:31:21;94.68;;;40.08;;
17965;SDS011;9108;53.204;10.424;2024-03-22T06:33:48;90.50;;;39.78;;
17965;SDS011;9108;53.204;10.424;2024-03-22T06:36:14;89.87;;;39.33;;
17965;SDS011;9108;53.204;10.424;2024-03-22T06:38:41;91.47;;;39.78;;
17965;SDS011;9108;53.204;10.424;2024-03-22T06:41:07;91.10;;;39.28;;
17965;SDS011;9108;53.204;10.424;2024-03-22T06:43:36;90.70;;;40.80;;
17965;SDS011;9108;53.204;10.424;2024-03-22T06:46:06;91.25;;;39.88;;
17965;SDS011;9108;53.204;10.424;2024-03-22T06:48:33;93.18;;;40.72;;
17965;SDS011;9108;53.204;10.424;2024-03-22T06:50:59;96.05;;;41.70;;
17965;SDS011;9108;53.204;10.424;2024-03-22T06:53:26;96.60;;;40.65;;
17965;SDS011;9108;53.204;10.424;2024-03-22T06:55:52;95.80;;;40.15;;
17965;SDS011;9108;53.204;10.424;2024-03-22T06:58:20;94.95;;;40.55;;
17965;SDS011;9108;53.204;10.424;2024-03-22T07:00:48;95.65;;;41.65;;
17965;SDS011;9108;53.204;10.424;2024-03-22T07:03:15;96.90;;;41.70;;
17965;SDS011;9108;53.204;10.424;2024-03-22T07:05:42;93.53;;;41.45;;
17965;SDS011;9108;53.204;10.424;2024-03-22T07:08:09;96.00;;;40.85;;
17965;SDS011;9108;53.204;10.424;2024-03-22T07:10:38;101.05;;;42.25;;
17965;SDS011;9108;53.204;10.424;2024-03-22T07:13:05;97.60;;;42.70;;
17965;SDS011;9108;53.204;10.424;2024-03-22T07:15:34;98.18;;;42.40;;
17965;SDS011;9108;53.204;10.424;2024-03-22T07:18:02;97.78;;;42.00;;
17965;SDS011;9108;53.204;10.424;2024-03-22T07:20:30;98.43;;;41.72;;
17965;SDS011;9108;53.204;10.424;2024-03-22T07:22:57;100.07;;;42.13;;
17965;SDS011;9108;53.204;10.424;2024-03-22T07:25:23;101.57;;;42.40;;
17965;SDS011;9108;53.204;10.424;2024-03-22T07:27:50;99.82;;;41.45;;
17965;SDS011;9108;53.204;10.424;2024-03-22T07:30:17;99.18;;;42.15;;
17965;SDS011;9108;53.204;10.424;2024-03-22T07:32:45;103.20;;;42.75;;
17965;SDS011;9108;53.204;10.424;2024-03-22T07:35:13;98.67;;;42.20;;
17965;SDS011;9108;53.204;10.424;2024-03-22T07:37:41;102.60;;;42.70;;
17965;SDS011;9108;53.204;10.424;2024-03-22T07:40:07;100.15;;;43.25;;
17965;SDS011;9108;53.204;10.424;2024-03-22T07:42:34;105.22;;;43.65;;
17965;SDS011;9108;53.204;10.424;2024-03-22T07:45:01;104.50;;;43.22;;
17965;SDS011;9108;53.204;10.424;2024-03-22T07:47:29;106.47;;;44.20;;
17965;SDS011;9108;53.204;10.424;2024-03-22T07:49:55;106.95;;;44.67;;
17965;SDS011;9108;53.204;10.424;2024-03-22T07:52:24;109.38;;;44.90;;
17965;SDS011;9108;53.204;10.424;2024-03-22T07:54:50;110.22;;;44.67;;
17965;SDS011;9108;53.204;10.424;2024-03-22T07:57:17;106.03;;;44.90;;
17965;SDS011;9108;53.204;10.424;2024-03-22T07:59:43;107.30;;;44.13;;
17965;SDS011;9108;53.204;10.424;2024-03-22T08:02:11;108.17;;;44.63;;
17965;SDS011;9108;53.204;10.424;2024-03-22T08:04:37;109.43;;;45.75;;
17965;SDS011;9108;53.204;10.424;2024-03-22T08:07:04;107.15;;;44.45;;
17965;SDS011;9108;53.204;10.424;2024-03-22T08:09:32;112.47;;;45.28;;
17965;SDS011;9108;53.204;10.424;2024-03-22T08:11:59;111.93;;;45.67;;
17965;SDS011;9108;53.204;10.424;2024-03-22T08:14:26;112.68;;;45.80;;
17965;SDS011;9108;53.204;10.424;2024-03-22T08:16:53;109.43;;;44.75;;
17965;SDS011;9108;53.204;10.424;2024-03-22T08:19:19;115.47;;;44.73;;
17965;SDS011;9108;53.204;10.424;2024-03-22T08:21:46;118.88;;;45.88;;
17965;SDS011;9108;53.204;10.424;2024-03-22T08:24:12;118.55;;;46.55;;
17965;SDS011;9108;53.204;10.424;2024-03-22T08:26:41;117.20;;;46.42;;
17965;SDS011;9108;53.204;10.424;2024-03-22T08:29:10;114.40;;;46.67;;
17965;SDS011;9108;53.204;10.424;2024-03-22T08:31:38;114.70;;;45.42;;
17965;SDS011;9108;53.204;10.424;2024-03-22T08:34:06;122.28;;;47.28;;
17965;SDS011;9108;53.204;10.424;2024-03-22T08:36:37;128.65;;;47.75;;
17965;SDS011;9108;53.204;10.424;2024-03-22T08:39:03;120.72;;;46.58;;
17965;SDS011;9108;53.204;10.424;2024-03-22T08:41:32;126.60;;;47.63;;
17965;SDS011;9108;53.204;10.424;2024-03-22T08:44:00;126.20;;;47.58;;
17965;SDS011;9108;53.204;10.424;2024-03-22T08:46:27;129.73;;;48.25;;
17965;SDS011;9108;53.204;10.424;2024-03-22T08:48:53;128.93;;;47.20;;
17965;SDS011;9108;53.204;10.424;2024-03-22T08:51:20;133.43;;;48.63;;
17965;SDS011;9108;53.204;10.424;2024-03-22T08:53:47;128.02;;;48.15;;
17965;SDS011;9108;53.204;10.424;2024-03-22T08:56:14;130.38;;;48.83;;
17965;SDS011;9108;53.204;10.424;2024-03-22T08:58:40;135.95;;;49.15;;
17965;SDS011;9108;53.204;10.424;2024-03-22T09:01:08;134.43;;;49.47;;
17965;SDS011;9108;53.204;10.424;2024-03-22T09:03:35;130.40;;;47.88;;
17965;SDS011;9108;53.204;10.424;2024-03-22T09:06:03;134.15;;;48.28;;
17965;SDS011;9108;53.204;10.424;2024-03-22T09:08:29;134.23;;;48.95;;
17965;SDS011;9108;53.204;10.424;2024-03-22T09:10:58;125.05;;;46.90;;
17965;SDS011;9108;53.204;10.424;2024-03-22T09:13:24;128.45;;;47.53;;
17965;SDS011;9108;53.204;10.424;2024-03-22T09:15:56;126.60;;;45.45;;
17965;SDS011;9108;53.204;10.424;2024-03-22T09:18:24;125.63;;;47.38;;
17965;SDS011;9108;53.204;10.424;2024-03-22T09:20:51;128.05;;;47.00;;
17965;SDS011;9108;53.204;10.424;2024-03-22T09:23:18;124.10;;;46.20;;
17965;SDS011;9108;53.204;10.424;2024-03-22T09:25:49;126.93;;;47.13;;
17965;SDS011;9108;53.204;10.424;2024-03-22T09:28:16;128.48;;;46.28;;
17965;SDS011;9108;53.204;10.424;2024-03-22T09:30:43;128.20;;;46.60;;
17965;SDS011;9108;53.204;10.424;2024-03-22T09:33:09;129.70;;;46.47;;
17965;SDS011;9108;53.204;10.424;2024-03-22T09:35:39;127.72;;;47.03;;
17965;SDS011;9108;53.204;10.424;2024-03-22T09:38:06;118.95;;;43.85;;
17965;SDS011;9108;53.204;10.424;2024-03-22T09:40:33;118.07;;;44.22;;
17965;SDS011;9108;53.204;10.424;2024-03-22T09:43:01;118.20;;;45.05;;
17965;SDS011;9108;53.204;10.424;2024-03-22T09:45:29;123.33;;;44.80;;
17965;SDS011;9108;53.204;10.424;2024-03-22T09:47:56;123.95;;;45.45;;
17965;SDS011;9108;53.204;10.424;2024-03-22T09:50:22;118.45;;;43.72;;
17965;SDS011;9108;53.204;10.424;2024-03-22T09:52:51;119.05;;;44.88;;
17965;SDS011;9108;53.204;10.424;2024-03-22T09:55:18;122.85;;;45.45;;
17965;SDS011;9108;53.204;10.424;2024-03-22T09:57:47;121.30;;;45.65;;
17965;SDS011;9108;53.204;10.424;2024-03-22T10:00:15;114.18;;;43.33;;
17965;SDS011;9108;53.204;10.424;2024-03-22T10:02:43;121.65;;;45.28;;
17965;SDS011;9108;53.204;10.424;2024-03-22T10:05:10;118.60;;;44.27;;
17965;SDS011;9108;53.204;10.424;2024-03-22T10:07:37;114.28;;;43.22;;
17965;SDS011;9108;53.204;10.424;2024-03-22T10:10:06;108.93;;;42.80;;
17965;SDS011;9108;53.204;10.424;2024-03-22T10:12:33;108.05;;;42.88;;
17965;SDS011;9108;53.204;10.424;2024-03-22T10:15:00;107.60;;;42.63;;
17965;SDS011;9108;53.204;10.424;2024-03-22T10:17:26;106.53;;;41.90;;
17965;SDS011;9108;53.204;10.424;2024-03-22T10:19:53;103.63;;;41.25;;
17965;SDS011;9108;53.204;10.424;2024-03-22T10:22:20;112.00;;;42.20;;
17965;SDS011;9108;53.204;10.424;2024-03-22T10:24:48;110.93;;;41.83;;
17965;SDS011;9108;53.204;10.424;2024-03-22T10:27:16;108.43;;;42.22;;
17965;SDS011;9108;53.204;10.424;2024-03-22T10:29:43;105.00;;;42.03;;
17965;SDS011;9108;53.204;10.424;2024-03-22T10:32:10;110.30;;;42.25;;
17965;SDS011;9108;53.204;10.424;2024-03-22T10:34:37;109.22;;;42.00;;
17965;SDS011;9108;53.204;10.424;2024-03-22T10:37:05;106.38;;;41.72;;
17965;SDS011;9108;53.204;10.424;2024-03-22T10:39:35;102.68;;;41.25;;
17965;SDS011;9108;53.204;10.424;2024-03-22T10:42:02;101.40;;;40.53;;
17965;SDS011;9108;53.204;10.424;2024-03-22T10:44:30;104.75;;;39.90;;
17965;SDS011;9108;53.204;10.424;2024-03-22T10:46:56;102.82;;;39.75;;
17965;SDS011;9108;53.204;10.424;2024-03-22T10:49:25;98.30;;;39.40;;
17965;SDS011;9108;53.204;10.424;2024-03-22T10:51:54;96.43;;;38.13;;
17965;SDS011;9108;53.204;10.424;2024-03-22T10:54:27;92.10;;;37.28;;
17965;SDS011;9108;53.204;10.424;2024-03-22T10:56:54;81.97;;;34.73;;
17965;SDS011;9108;53.204;10.424;2024-03-22T10:59:22;85.10;;;35.78;;
17965;SDS011;9108;53.204;10.424;2024-03-22T11:01:50;91.95;;;36.67;;
17965;SDS011;9108;53.204;10.424;2024-03-22T11:04:17;90.38;;;37.15;;
17965;SDS011;9108;53.204;10.424;2024-03-22T11:06:47;94.75;;;38.17;;
17965;SDS011;9108;53.204;10.424;2024-03-22T11:09:18;90.05;;;37.88;;
17965;SDS011;9108;53.204;10.424;2024-03-22T11:11:46;92.83;;;37.87;;
17965;SDS011;9108;53.204;10.424;2024-03-22T11:14:13;97.47;;;37.83;;
17965;SDS011;9108;53.204;10.424;2024-03-22T11:16:42;90.22;;;36.33;;
17965;SDS011;9108;53.204;10.424;2024-03-22T11:19:10;91.93;;;38.08;;
17965;SDS011;9108;53.204;10.424;2024-03-22T11:21:38;96.15;;;37.70;;
17965;SDS011;9108;53.204;10.424;2024-03-22T11:24:04;89.37;;;37.03;;
17965;SDS011;9108;53.204;10.424;2024-03-22T11:26:31;89.28;;;36.45;;
17965;SDS011;9108;53.204;10.424;2024-03-22T11:28:58;82.47;;;34.42;;
17965;SDS011;9108;53.204;10.424;2024-03-22T11:31:25;83.30;;;35.17;;
17965;SDS011;9108;53.204;10.424;2024-03-22T11:33:52;78.97;;;33.70;;
17965;SDS011;9108;53.204;10.424;2024-03-22T11:36:21;73.15;;;32.33;;
17965;SDS011;9108;53.204;10.424;2024-03-22T11:38:47;74.43;;;31.80;;
17965;SDS011;9108;53.204;10.424;2024-03-22T11:41:16;73.25;;;31.17;;
17965;SDS011;9108;53.204;10.424;2024-03-22T11:43:43;72.63;;;30.60;;
17965;SDS011;9108;53.204;10.424;2024-03-22T11:46:10;72.25;;;31.23;;
17965;SDS011;9108;53.204;10.424;2024-03-22T11:48:38;71.10;;;30.58;;
17965;SDS011;9108;53.204;10.424;2024-03-22T11:51:23;65.75;;;29.02;;
17965;SDS011;9108;53.204;10.424;2024-03-22T11:53:50;62.08;;;27.95;;
17965;SDS011;9108;53.204;10.424;2024-03-22T11:56:18;59.28;;;27.67;;
17965;SDS011;9108;53.204;10.424;2024-03-22T11:58:45;63.80;;;28.25;;
17965;SDS011;9108;53.204;10.424;2024-03-22T12:01:13;59.50;;;27.33;;
17965;SDS011;9108;53.204;10.424;2024-03-22T12:03:39;57.13;;;26.27;;
17965;SDS011;9108;53.204;10.424;2024-03-22T12:06:08;56.30;;;25.80;;
17965;SDS011;9108;53.204;10.424;2024-03-22T12:08:37;56.60;;;26.08;;
17965;SDS011;9108;53.204;10.424;2024-03-22T12:11:06;56.37;;;25.77;;
17965;SDS011;9108;53.204;10.424;2024-03-22T12:13:33;58.90;;;26.00;;
17965;SDS011;9108;53.204;10.424;2024-03-22T12:16:00;51.00;;;23.00;;
17965;SDS011;9108;53.204;10.424;2024-03-22T12:18:26;54.70;;;23.02;;
17965;SDS011;9108;53.204;10.424;2024-03-22T12:20:53;52.87;;;23.10;;
17965;SDS011;9108;53.204;10.424;2024-03-22T12:23:20;49.53;;;21.33;;
17965;SDS011;9108;53.204;10.424;2024-03-22T12:25:48;47.47;;;21.35;;
17965;SDS011;9108;53.204;10.424;2024-03-22T12:28:15;44.25;;;20.00;;
17965;SDS011;9108;53.204;10.424;2024-03-22T12:30:42;44.83;;;20.40;;
17965;SDS011;9108;53.204;10.424;2024-03-22T12:33:09;40.33;;;18.83;;
17965;SDS011;9108;53.204;10.424;2024-03-22T12:35:36;37.83;;;17.13;;
17965;SDS011;9108;53.204;10.424;2024-03-22T12:38:03;33.03;;;16.42;;
17965;SDS011;9108;53.204;10.424;2024-03-22T12:40:30;32.53;;;15.23;;
17965;SDS011;9108;53.204;10.424;2024-03-22T12:42:59;31.73;;;15.05;;
17965;SDS011;9108;53.204;10.424;2024-03-22T12:45:26;27.95;;;14.15;;
17965;SDS011;9108;53.204;10.424;2024-03-22T12:47:52;30.85;;;14.73;;
17965;SDS011;9108;53.204;10.424;2024-03-22T12:50:19;31.75;;;14.40;;
17965;SDS011;9108;53.204;10.424;2024-03-22T12:52:45;32.20;;;15.60;;
17965;SDS011;9108;53.204;10.424;2024-03-22T12:55:13;37.35;;;17.73;;
17965;SDS011;9108;53.204;10.424;2024-03-22T12:57:39;37.83;;;17.48;;
17965;SDS011;9108;53.204;10.424;2024-03-22T13:00:08;39.13;;;18.02;;
17965;SDS011;9108;53.204;10.424;2024-03-22T13:02:37;36.90;;;18.23;;
17965;SDS011;9108;53.204;10.424;2024-03-22T13:05:05;37.40;;;18.17;;
17965;SDS011;9108;53.204;10.424;2024-03-22T13:07:32;38.00;;;17.45;;
17965;SDS011;9108;53.204;10.424;2024-03-22T13:09:59;36.47;;;16.83;;
17965;SDS011;9108;53.204;10.424;2024-03-22T13:12:25;33.58;;;15.95;;
17965;SDS011;9108;53.204;10.424;2024-03-22T13:14:52;30.52;;;14.30;;
17965;SDS011;9108;53.204;10.424;2024-03-22T13:17:20;27.58;;;14.15;;
17965;SDS011;9108;53.204;10.424;2024-03-22T13:19:48;27.58;;;13.55;;
17965;SDS011;9108;53.204;10.424;2024-03-22T13:22:14;25.40;;;13.00;;
17965;SDS011;9108;53.204;10.424;2024-03-22T13:24:43;24.35;;;12.30;;
17965;SDS011;9108;53.204;10.424;2024-03-22T13:27:09;24.15;;;12.20;;
17965;SDS011;9108;53.204;10.424;2024-03-22T13:29:37;23.13;;;11.70;;
17965;SDS011;9108;53.204;10.424;2024-03-22T13:32:04;21.30;;;10.77;;
17965;SDS011;9108;53.204;10.424;2024-03-22T13:34:33;19.80;;;10.43;;
17965;SDS011;9108;53.204;10.424;2024-03-22T13:36:59;18.42;;;9.90;;
17965;SDS011;9108;53.204;10.424;2024-03-22T13:39:27;17.83;;;9.80;;
17965;SDS011;9108;53.204;10.424;2024-03-22T13:41:54;18.58;;;9.85;;
17965;SDS011;9108;53.204;10.424;2024-03-22T13:44:21;19.73;;;9.82;;
17965;SDS011;9108;53.204;10.424;2024-03-22T13:46:48;20.65;;;10.48;;
17965;SDS011;9108;53.204;10.424;2024-03-22T13:49:16;21.25;;;10.98;;
17965;SDS011;9108;53.204;10.424;2024-03-22T13:51:44;24.98;;;12.15;;
17965;SDS011;9108;53.204;10.424;2024-03-22T13:54:11;24.60;;;12.52;;
17965;SDS011;9108;53.204;10.424;2024-03-22T13:56:38;27.67;;;12.73;;
17965;SDS011;9108;53.204;10.424;2024-03-22T13:59:05;24.15;;;12.10;;
17965;SDS011;9108;53.204;10.424;2024-03-22T14:01:33;25.45;;;12.85;;
17965;SDS011;9108;53.204;10.424;2024-03-22T14:04:01;24.42;;;12.52;;
17965;SDS011;9108;53.204;10.424;2024-03-22T14:06:28;24.70;;;11.98;;
17965;SDS011;9108;53.204;10.424;2024-03-22T14:08:57;26.30;;;12.75;;
17965;SDS011;9108;53.204;10.424;2024-03-22T14:11:26;24.38;;;12.20;;
17965;SDS011;9108;53.204;10.424;2024-03-22T14:13:53;22.13;;;11.75;;
17965;SDS011;9108;53.204;10.424;2024-03-22T14:16:19;23.98;;;11.45;;
17965;SDS011;9108;53.204;10.424;2024-03-22T14:18:46;22.58;;;11.48;;
17965;SDS011;9108;53.204;10.424;2024-03-22T14:21:13;22.70;;;11.77;;
17965;SDS011;9108;53.204;10.424;2024-03-22T14:23:44;22.30;;;11.10;;
17965;SDS011;9108;53.204;10.424;2024-03-22T14:26:12;24.83;;;11.30;;
17965;SDS011;9108;53.204;10.424;2024-03-22T14:28:39;22.13;;;10.87;;
17965;SDS011;9108;53.204;10.424;2024-03-22T14:31:05;22.23;;;11.57;;
17965;SDS011;9108;53.204;10.424;2024-03-22T14:33:34;20.70;;;10.52;;
17965;SDS011;9108;53.204;10.424;2024-03-22T14:36:00;20.80;;;10.57;;
17965;SDS011;9108;53.204;10.424;2024-03-22T14:38:27;20.33;;;10.50;;
17965;SDS011;9108;53.204;10.424;2024-03-22T14:40:54;20.13;;;10.77;;
17965;SDS011;9108;53.204;10.424;2024-03-22T14:43:22;21.17;;;10.73;;
17965;SDS011;9108;53.204;10.424;2024-03-22T14:45:49;19.23;;;10.18;;
17965;SDS011;9108;53.204;10.424;2024-03-22T14:48:17;20.45;;;10.27;;
17965;SDS011;9108;53.204;10.424;2024-03-22T14:50:44;19.70;;;10.00;;
17965;SDS011;9108;53.204;10.424;2024-03-22T14:53:11;17.50;;;9.88;;
17965;SDS011;9108;53.204;10.424;2024-03-22T14:55:37;16.85;;;8.75;;
17965;SDS011;9108;53.204;10.424;2024-03-22T14:58:05;16.98;;;8.95;;
17965;SDS011;9108;53.204;10.424;2024-03-22T15:00:33;15.88;;;8.80;;
17965;SDS011;9108;53.204;10.424;2024-03-22T15:03:00;17.27;;;9.27;;
17965;SDS011;9108;53.204;10.424;2024-03-22T15:05:27;18.27;;;9.30;;
17965;SDS011;9108;53.204;10.424;2024-03-22T15:07:55;18.50;;;9.60;;
17965;SDS011;9108;53.204;10.424;2024-03-22T15:10:21;18.50;;;9.45;;
17965;SDS011;9108;53.204;10.424;2024-03-22T15:12:49;16.25;;;8.57;;
17965;SDS011;9108;53.204;10.424;2024-03-22T15:15:16;17.92;;;9.10;;
17965;SDS011;9108;53.204;10.424;2024-03-22T15:17:45;15.95;;;8.70;;
17965;SDS011;9108;53.204;10.424;2024-03-22T15:20:11;16.30;;;9.20;;
17965;SDS011;9108;53.204;10.424;2024-03-22T15:22:40;17.95;;;9.25;;
17965;SDS011;9108;53.204;10.424;2024-03-22T15:25:06;17.92;;;9.48;;
17965;SDS011;9108;53.204;10.424;2024-03-22T15:27:34;17.90;;;9.67;;
17965;SDS011;9108;53.204;10.424;2024-03-22T15:30:00;16.67;;;9.15;;
17965;SDS011;9108;53.204;10.424;2024-03-22T15:32:27;18.75;;;9.77;;
17965;SDS011;9108;53.204;10.424;2024-03-22T15:34:55;16.95;;;9.02;;
17965;SDS011;9108;53.204;10.424;2024-03-22T15:37:22;18.05;;;9.43;;
17965;SDS011;9108;53.204;10.424;2024-03-22T15:39:49;16.15;;;8.90;;
17965;SDS011;9108;53.204;10.424;2024-03-22T15:42:16;16.63;;;9.10;;
17965;SDS011;9108;53.204;10.424;2024-03-22T15:44:42;17.88;;;9.52;;
17965;SDS011;9108;53.204;10.424;2024-03-22T15:47:10;17.42;;;9.43;;
17965;SDS011;9108;53.204;10.424;2024-03-22T15:49:36;16.27;;;8.93;;
17965;SDS011;9108;53.204;10.424;2024-03-22T15:52:05;18.20;;;9.15;;
17965;SDS011;9108;53.204;10.424;2024-03-22T15:54:31;18.55;;;9.65;;
17965;SDS011;9108;53.204;10.424;2024-03-22T15:56:58;18.73;;;9.55;;
17965;SDS011;9108;53.204;10.424;2024-03-22T15:59:25;18.17;;;9.77;;
17965;SDS011;9108;53.204;10.424;2024-03-22T16:01:52;17.23;;;9.18;;
17965;SDS011;9108;53.204;10.424;2024-03-22T16:04:18;20.60;;;9.85;;
17965;SDS011;9108;53.204;10.424;2024-03-22T16:06:46;19.67;;;10.35;;
17965;SDS011;9108;53.204;10.424;2024-03-22T16:09:13;20.23;;;10.18;;
17965;SDS011;9108;53.204;10.424;2024-03-22T16:11:41;14.23;;;6.17;;
17965;SDS011;9108;53.204;10.424;2024-03-22T16:14:07;15.90;;;5.47;;
17965;SDS011;9108;53.204;10.424;2024-03-22T16:16:35;15.88;;;5.28;;
17965;SDS011;9108;53.204;10.424;2024-03-22T16:19:01;20.90;;;4.10;;
17965;SDS011;9108;53.204;10.424;2024-03-22T16:21:28;17.92;;;3.78;;
17965;SDS011;9108;53.204;10.424;2024-03-22T16:23:55;19.13;;;3.60;;
17965;SDS011;9108;53.204;10.424;2024-03-22T16:26:23;18.15;;;3.40;;
17965;SDS011;9108;53.204;10.424;2024-03-22T16:28:49;22.55;;;3.67;;
17965;SDS011;9108;53.204;10.424;2024-03-22T16:31:16;21.88;;;3.47;;
17965;SDS011;9108;53.204;10.424;2024-03-22T16:33:43;21.30;;;3.55;;
17965;SDS011;9108;53.204;10.424;2024-03-22T16:36:10;18.00;;;3.30;;
17965;SDS011;9108;53.204;10.424;2024-03-22T16:38:36;19.27;;;3.92;;
17965;SDS011;9108;53.204;10.424;2024-03-22T16:41:03;20.98;;;4.05;;
17965;SDS011;9108;53.204;10.424;2024-03-22T16:43:30;20.03;;;3.40;;
17965;SDS011;9108;53.204;10.424;2024-03-22T16:45:58;24.33;;;4.00;;
17965;SDS011;9108;53.204;10.424;2024-03-22T16:48:25;25.13;;;3.88;;
17965;SDS011;9108;53.204;10.424;2024-03-22T16:50:52;23.83;;;3.53;;
17965;SDS011;9108;53.204;10.424;2024-03-22T16:53:19;20.33;;;3.20;;
17965;SDS011;9108;53.204;10.424;2024-03-22T16:55:46;22.33;;;3.17;;
17965;SDS011;9108;53.204;10.424;2024-03-22T16:58:12;22.53;;;3.27;;
17965;SDS011;9108;53.204;10.424;2024-03-22T17:00:40;18.77;;;2.72;;
17965;SDS011;9108;53.204;10.424;2024-03-22T17:03:06;24.73;;;3.22;;
17965;SDS011;9108;53.204;10.424;2024-03-22T17:05:33;28.33;;;3.37;;
17965;SDS011;9108;53.204;10.424;2024-03-22T17:08:00;21.90;;;3.28;;
17965;SDS011;9108;53.204;10.424;2024-03-22T17:10:27;28.17;;;3.65;;
17965;SDS011;9108;53.204;10.424;2024-03-22T17:12:54;25.58;;;3.75;;
17965;SDS011;9108;53.204;10.424;2024-03-22T17:15:21;24.10;;;3.83;;
17965;SDS011;9108;53.204;10.424;2024-03-22T17:17:50;28.05;;;3.95;;
17965;SDS011;9108;53.204;10.424;2024-03-22T17:20:17;24.75;;;3.55;;
17965;SDS011;9108;53.204;10.424;2024-03-22T17:22:44;24.00;;;3.58;;
17965;SDS011;9108;53.204;10.424;2024-03-22T17:25:12;22.63;;;3.65;;
17965;SDS011;9108;53.204;10.424;2024-03-22T17:27:38;26.58;;;3.40;;
17965;SDS011;9108;53.204;10.424;2024-03-22T17:30:06;25.63;;;3.50;;
17965;SDS011;9108;53.204;10.424;2024-03-22T17:32:33;24.05;;;3.45;;
17965;SDS011;9108;53.204;10.424;2024-03-22T17:35:01;30.73;;;4.22;;
17965;SDS011;9108;53.204;10.424;2024-03-22T17:37:28;21.38;;;3.13;;
17965;SDS011;9108;53.204;10.424;2024-03-22T17:39:55;23.93;;;3.13;;
17965;SDS011;9108;53.204;10.424;2024-03-22T17:42:22;24.75;;;3.08;;
17965;SDS011;9108;53.204;10.424;2024-03-22T17:44:49;27.42;;;3.20;;
17965;SDS011;9108;53.204;10.424;2024-03-22T17:47:16;24.70;;;3.23;;
17965;SDS011;9108;53.204;10.424;2024-03-22T17:49:44;22.58;;;2.88;;
17965;SDS011;9108;53.204;10.424;2024-03-22T17:52:12;25.30;;;4.50;;
17965;SDS011;9108;53.204;10.424;2024-03-22T17:54:44;30.48;;;5.50;;
17965;SDS011;9108;53.204;10.424;2024-03-22T17:57:13;23.92;;;3.80;;
17965;SDS011;9108;53.204;10.424;2024-03-22T17:59:56;29.08;;;3.97;;
17965;SDS011;9108;53.204;10.424;2024-03-22T18:05:57;27.23;;;3.50;;
17965;SDS011;9108;53.204;10.424;2024-03-22T18:08:52;29.65;;;3.72;;
17965;SDS011;9108;53.204;10.424;2024-03-22T18:11:20;26.75;;;4.10;;
17965;SDS011;9108;53.204;10.424;2024-03-22T18:13:47;29.63;;;4.20;;
17965;SDS011;9108;53.204;10.424;2024-03-22T18:16:15;26.52;;;4.63;;
17965;SDS011;9108;53.204;10.424;2024-03-22T18:18:41;30.80;;;4.10;;
17965;SDS011;9108;53.204;10.424;2024-03-22T18:21:08;25.55;;;3.75;;
17965;SDS011;9108;53.204;10.424;2024-03-22T18:23:35;26.65;;;4.20;;
17965;SDS011;9108;53.204;10.424;2024-03-22T18:26:04;23.52;;;3.60;;
17965;SDS011;9108;53.204;10.424;2024-03-22T18:28:30;30.67;;;4.20;;
17965;SDS011;9108;53.204;10.424;2024-03-22T18:30:57;23.93;;;3.50;;
17965;SDS011;9108;53.204;10.424;2024-03-22T18:33:23;30.53;;;4.03;;
17965;SDS011;9108;53.204;10.424;2024-03-22T18:35:51;26.73;;;4.05;;
17965;SDS011;9108;53.204;10.424;2024-03-22T18:38:17;30.13;;;4.22;;
17965;SDS011;9108;53.204;10.424;2024-03-22T18:40:44;30.55;;;3.90;;
17965;SDS011;9108;53.204;10.424;2024-03-22T18:43:12;31.13;;;4.15;;
17965;SDS011;9108;53.204;10.424;2024-03-22T18:45:40;32.95;;;3.97;;
17965;SDS011;9108;53.204;10.424;2024-03-22T18:48:06;32.13;;;4.38;;
17965;SDS011;9108;53.204;10.424;2024-03-22T18:50:33;30.77;;;4.28;;
17965;SDS011;9108;53.204;10.424;2024-03-22T18:53:01;29.50;;;4.45;;
17965;SDS011;9108;53.204;10.424;2024-03-22T18:55:28;32.42;;;4.40;;
17965;SDS011;9108;53.204;10.424;2024-03-22T18:57:54;32.42;;;4.47;;
17965;SDS011;9108;53.204;10.424;2024-03-22T19:00:22;31.25;;;4.13;;
17965;SDS011;9108;53.204;10.424;2024-03-22T19:02:49;29.27;;;4.05;;
17965;SDS011;9108;53.204;10.424;2024-03-22T19:05:16;36.50;;;7.17;;
17965;SDS011;9108;53.204;10.424;2024-03-22T19:07:43;38.30;;;5.87;;
17965;SDS011;9108;53.204;10.424;2024-03-22T19:10:11;35.78;;;7.80;;
17965;SDS011;9108;53.204;10.424;2024-03-22T19:12:38;28.98;;;5.65;;
17965;SDS011;9108;53.204;10.424;2024-03-22T19:15:05;35.45;;;6.13;;
17965;SDS011;9108;53.204;10.424;2024-03-22T19:17:33;31.38;;;5.25;;
17965;SDS011;9108;53.204;10.424;2024-03-22T19:20:00;30.50;;;4.15;;
17965;SDS011;9108;53.204;10.424;2024-03-22T19:22:26;33.45;;;5.10;;
17965;SDS011;9108;53.204;10.424;2024-03-22T19:24:54;31.60;;;5.00;;
17965;SDS011;9108;53.204;10.424;2024-03-22T19:27:20;32.03;;;6.00;;
17965;SDS011;9108;53.204;10.424;2024-03-22T19:29:47;29.05;;;5.25;;
17965;SDS011;9108;53.204;10.424;2024-03-22T19:32:14;31.80;;;5.57;;
17965;SDS011;9108;53.204;10.424;2024-03-22T19:34:42;30.27;;;5.40;;